EKAH/AAR METAR and TAF weather

Enter ICAO airport designator
Station Type Date Time Source
EKAH METAR 2020/01/21 21:20 UTC NOAA

EKAH 212120Z AUTO 28019KT 9999NDV BKN021/// 07/04 Q1028


Station Type Date Time Source
EKAH Decoded METAR 2020/01/21 21:20 UTC NOAA

Tirstrup, Denmark (EKAH) 56-18N 010-37E 25M
Jan 21, 2020 - 04:20 PM EST / 2020.01.21 2120 UTC
Wind: from the W (280 degrees) at 22 MPH (19 KT):0
Sky conditions: mostly cloudy
Temperature: 44 F (7 C)
Dew Point: 39 F (4 C)
Relative Humidity: 81%
Pressure (altimeter): 30.36 in. Hg (1028 hPa)
ob: EKAH 212120Z AUTO 28019KT 9999NDV BKN021/// 07/04 Q1028
cycle: 21

Station Type Date Time Source
EKAH TAF 2020/01/21 18:28 UTC NOAA

TAF
AMD EKAH 211821Z 2118/2218 29015KT 9999 FEW020
TEMPO 2118/2120 BKN014
TEMPO 2120/2203 30015G25KT
BECMG 2215/2218 29004KT

Example: see airport list